sensor_id;sensor_type;location;lat;lon;timestamp;pressure;altitude;pressure_sealevel;temperature;humidity
55517;BME280;41724;51.176;-0.708;2024-03-08T00:02:09;100851.30;;;8.29;65.10
55517;BME280;41724;51.176;-0.708;2024-03-08T00:04:36;100849.82;;;8.32;65.54
55517;BME280;41724;51.176;-0.708;2024-03-08T00:07:04;100848.91;;;8.48;65.44
55517;BME280;41724;51.176;-0.708;2024-03-08T00:09:31;100847.89;;;8.53;64.32
55517;BME280;41724;51.176;-0.708;2024-03-08T00:11:58;100846.25;;;8.11;65.87
55517;BME280;41724;51.176;-0.708;2024-03-08T00:14:24;100843.26;;;8.64;64.62
55517;BME280;41724;51.176;-0.708;2024-03-08T00:16:51;100844.12;;;7.72;67.52
55517;BME280;41724;51.176;-0.708;2024-03-08T00:19:18;100842.77;;;7.52;68.20
55517;BME280;41724;51.176;-0.708;2024-03-08T00:21:45;100835.43;;;8.28;66.01
55517;BME280;41724;51.176;-0.708;2024-03-08T00:24:12;100832.05;;;8.48;65.34
55517;BME280;41724;51.176;-0.708;2024-03-08T00:26:40;100831.35;;;8.30;65.77
55517;BME280;41724;51.176;-0.708;2024-03-08T00:29:07;100826.04;;;8.57;64.01
55517;BME280;41724;51.176;-0.708;2024-03-08T00:31:34;100829.69;;;7.80;68.12
55517;BME280;41724;51.176;-0.708;2024-03-08T00:34:01;100826.94;;;8.19;66.90
55517;BME280;41724;51.176;-0.708;2024-03-08T00:36:28;100820.96;;;8.14;65.90
55517;BME280;41724;51.176;-0.708;2024-03-08T00:38:55;100823.99;;;8.43;64.56
55517;BME280;41724;51.176;-0.708;2024-03-08T00:41:22;100822.94;;;8.41;64.52
55517;BME280;41724;51.176;-0.708;2024-03-08T00:43:49;100824.94;;;7.64;67.04
55517;BME280;41724;51.176;-0.708;2024-03-08T00:46:16;100823.66;;;7.94;66.99
55517;BME280;41724;51.176;-0.708;2024-03-08T00:48:44;100815.45;;;8.28;66.18
55517;BME280;41724;51.176;-0.708;2024-03-08T00:51:10;100811.30;;;8.54;65.24
55517;BME280;41724;51.176;-0.708;2024-03-08T00:53:38;100808.29;;;8.31;65.60
55517;BME280;41724;51.176;-0.708;2024-03-08T00:56:05;100810.27;;;8.51;65.25
55517;BME280;41724;51.176;-0.708;2024-03-08T00:58:32;100807.35;;;9.01;63.40
55517;BME280;41724;51.176;-0.708;2024-03-08T01:01:00;100799.66;;;9.26;62.05
55517;BME280;41724;51.176;-0.708;2024-03-08T01:03:27;100803.40;;;8.93;62.29
55517;BME280;41724;51.176;-0.708;2024-03-08T01:05:54;100799.66;;;9.01;61.80
55517;BME280;41724;51.176;-0.708;2024-03-08T01:08:21;100792.80;;;9.05;61.65
55517;BME280;41724;51.176;-0.708;2024-03-08T01:10:47;100788.70;;;9.15;60.78
55517;BME280;41724;51.176;-0.708;2024-03-08T01:13:15;100784.53;;;9.24;60.41
55517;BME280;41724;51.176;-0.708;2024-03-08T01:15:42;100779.82;;;9.05;61.19
55517;BME280;41724;51.176;-0.708;2024-03-08T01:18:09;100777.48;;;8.96;60.49
55517;BME280;41724;51.176;-0.708;2024-03-08T01:20:36;100773.92;;;9.56;59.74
55517;BME280;41724;51.176;-0.708;2024-03-08T01:23:04;100771.49;;;9.20;59.97
55517;BME280;41724;51.176;-0.708;2024-03-08T01:25:31;100768.31;;;9.06;59.32
55517;BME280;41724;51.176;-0.708;2024-03-08T01:27:58;100764.30;;;9.25;58.96
55517;BME280;41724;51.176;-0.708;2024-03-08T01:30:25;100759.91;;;9.27;58.27
55517;BME280;41724;51.176;-0.708;2024-03-08T01:32:53;100756.71;;;9.27;58.37
55517;BME280;41724;51.176;-0.708;2024-03-08T01:35:19;100751.46;;;9.05;57.86
55517;BME280;41724;51.176;-0.708;2024-03-08T01:37:46;100745.03;;;9.10;57.95
55517;BME280;41724;51.176;-0.708;2024-03-08T01:40:13;100742.12;;;9.13;58.19
55517;BME280;41724;51.176;-0.708;2024-03-08T01:42:40;100735.50;;;9.07;57.77
55517;BME280;41724;51.176;-0.708;2024-03-08T01:45:08;100732.07;;;8.92;57.85
55517;BME280;41724;51.176;-0.708;2024-03-08T01:47:35;100727.92;;;8.64;57.75
55517;BME280;41724;51.176;-0.708;2024-03-08T01:50:03;100728.11;;;9.09;57.52
55517;BME280;41724;51.176;-0.708;2024-03-08T01:52:31;100724.82;;;8.76;57.22
55517;BME280;41724;51.176;-0.708;2024-03-08T01:54:59;100724.03;;;8.82;57.19
55517;BME280;41724;51.176;-0.708;2024-03-08T01:57:29;100720.68;;;8.59;56.92
55517;BME280;41724;51.176;-0.708;2024-03-08T01:59:57;100715.77;;;8.40;56.62
55517;BME280;41724;51.176;-0.708;2024-03-08T02:02:24;100709.86;;;8.66;56.38
55517;BME280;41724;51.176;-0.708;2024-03-08T02:04:52;100701.41;;;8.44;56.75
55517;BME280;41724;51.176;-0.708;2024-03-08T02:07:19;100697.47;;;8.60;55.76
55517;BME280;41724;51.176;-0.708;2024-03-08T02:09:46;100697.75;;;8.48;56.20
55517;BME280;41724;51.176;-0.708;2024-03-08T02:12:13;100696.52;;;8.34;56.15
55517;BME280;41724;51.176;-0.708;2024-03-08T02:14:41;100690.82;;;8.33;55.34
55517;BME280;41724;51.176;-0.708;2024-03-08T02:17:08;100689.47;;;8.18;55.54
55517;BME280;41724;51.176;-0.708;2024-03-08T02:19:35;100683.75;;;8.12;54.71
55517;BME280;41724;51.176;-0.708;2024-03-08T02:22:02;100678.77;;;7.81;54.42
55517;BME280;41724;51.176;-0.708;2024-03-08T02:24:30;100673.87;;;8.06;54.83
55517;BME280;41724;51.176;-0.708;2024-03-08T02:26:58;100671.24;;;7.97;54.85
55517;BME280;41724;51.176;-0.708;2024-03-08T02:29:25;100666.95;;;7.64;54.86
55517;BME280;41724;51.176;-0.708;2024-03-08T02:31:52;100662.21;;;7.69;54.75
55517;BME280;41724;51.176;-0.708;2024-03-08T02:34:19;100659.94;;;7.51;55.37
55517;BME280;41724;51.176;-0.708;2024-03-08T02:36:46;100654.03;;;7.42;55.70
55517;BME280;41724;51.176;-0.708;2024-03-08T02:39:13;100651.30;;;7.49;55.64
55517;BME280;41724;51.176;-0.708;2024-03-08T02:41:40;100643.32;;;7.25;54.99
55517;BME280;41724;51.176;-0.708;2024-03-08T02:44:07;100641.37;;;7.56;54.52
55517;BME280;41724;51.176;-0.708;2024-03-08T02:46:34;100639.64;;;7.46;53.73
55517;BME280;41724;51.176;-0.708;2024-03-08T02:49:01;100636.16;;;7.48;53.97
55517;BME280;41724;51.176;-0.708;2024-03-08T02:51:29;100630.70;;;7.26;53.59
55517;BME280;41724;51.176;-0.708;2024-03-08T02:53:56;100628.63;;;7.18;53.91
55517;BME280;41724;51.176;-0.708;2024-03-08T02:56:23;100622.38;;;6.95;54.33
55517;BME280;41724;51.176;-0.708;2024-03-08T02:58:51;100616.76;;;7.00;53.92
55517;BME280;41724;51.176;-0.708;2024-03-08T03:01:18;100613.15;;;6.48;54.29
55517;BME280;41724;51.176;-0.708;2024-03-08T03:03:44;100608.14;;;7.01;54.06
55517;BME280;41724;51.176;-0.708;2024-03-08T03:06:12;100607.20;;;6.79;53.65
55517;BME280;41724;51.176;-0.708;2024-03-08T03:08:39;100604.59;;;6.86;54.39
55517;BME280;41724;51.176;-0.708;2024-03-08T03:11:06;100599.76;;;6.97;54.34
55517;BME280;41724;51.176;-0.708;2024-03-08T03:13:34;100597.11;;;6.72;54.16
55517;BME280;41724;51.176;-0.708;2024-03-08T03:16:01;100600.64;;;6.38;54.74
55517;BME280;41724;51.176;-0.708;2024-03-08T03:18:29;100599.32;;;6.57;54.27
55517;BME280;41724;51.176;-0.708;2024-03-08T03:20:56;100593.02;;;6.69;53.50
55517;BME280;41724;51.176;-0.708;2024-03-08T03:23:23;100596.34;;;6.23;54.80
55517;BME280;41724;51.176;-0.708;2024-03-08T03:25:50;100594.22;;;6.26;55.89
55517;BME280;41724;51.176;-0.708;2024-03-08T03:28:17;100591.16;;;6.19;55.20
55517;BME280;41724;51.176;-0.708;2024-03-08T03:30:45;100590.21;;;6.11;55.15
55517;BME280;41724;51.176;-0.708;2024-03-08T03:33:12;100587.51;;;6.05;54.83
55517;BME280;41724;51.176;-0.708;2024-03-08T03:35:39;100585.72;;;6.53;54.03
55517;BME280;41724;51.176;-0.708;2024-03-08T03:38:06;100583.28;;;6.37;53.60
55517;BME280;41724;51.176;-0.708;2024-03-08T03:40:34;100581.83;;;6.63;53.08
55517;BME280;41724;51.176;-0.708;2024-03-08T03:43:02;100581.40;;;6.31;53.95
55517;BME280;41724;51.176;-0.708;2024-03-08T03:45:30;100582.78;;;6.04;54.90
55517;BME280;41724;51.176;-0.708;2024-03-08T03:47:57;100577.61;;;6.35;53.58
55517;BME280;41724;51.176;-0.708;2024-03-08T03:50:24;100579.27;;;5.54;54.32
55517;BME280;41724;51.176;-0.708;2024-03-08T03:52:51;100573.52;;;6.19;53.85
55517;BME280;41724;51.176;-0.708;2024-03-08T03:55:18;100568.72;;;6.12;53.61
55517;BME280;41724;51.176;-0.708;2024-03-08T03:57:46;100564.91;;;6.24;53.24
55517;BME280;41724;51.176;-0.708;2024-03-08T04:00:14;100561.31;;;6.07;53.79
55517;BME280;41724;51.176;-0.708;2024-03-08T04:02:42;100553.03;;;5.85;54.20
55517;BME280;41724;51.176;-0.708;2024-03-08T04:05:09;100548.46;;;6.11;54.65
55517;BME280;41724;51.176;-0.708;2024-03-08T04:07:38;100545.21;;;6.20;54.24
55517;BME280;41724;51.176;-0.708;2024-03-08T04:10:07;100544.00;;;6.17;54.91
55517;BME280;41724;51.176;-0.708;2024-03-08T04:12:36;100538.73;;;6.29;53.98
55517;BME280;41724;51.176;-0.708;2024-03-08T04:15:04;100530.35;;;6.50;53.64
55517;BME280;41724;51.176;-0.708;2024-03-08T04:17:31;100527.58;;;6.56;53.61
55517;BME280;41724;51.176;-0.708;2024-03-08T04:19:57;100525.83;;;6.42;53.98
55517;BME280;41724;51.176;-0.708;2024-03-08T04:22:24;100521.53;;;6.50;55.03
55517;BME280;41724;51.176;-0.708;2024-03-08T04:24:51;100523.00;;;6.42;55.49
55517;BME280;41724;51.176;-0.708;2024-03-08T04:27:18;100520.46;;;6.65;55.84
55517;BME280;41724;51.176;-0.708;2024-03-08T04:29:45;100521.58;;;6.81;56.55
55517;BME280;41724;51.176;-0.708;2024-03-08T04:32:12;100517.69;;;6.59;57.84
55517;BME280;41724;51.176;-0.708;2024-03-08T04:34:40;100513.08;;;6.73;58.33
55517;BME280;41724;51.176;-0.708;2024-03-08T04:37:06;100507.76;;;7.01;59.77
55517;BME280;41724;51.176;-0.708;2024-03-08T04:39:34;100502.76;;;7.15;60.40
55517;BME280;41724;51.176;-0.708;2024-03-08T04:42:02;100501.97;;;6.83;60.68
55517;BME280;41724;51.176;-0.708;2024-03-08T04:44:29;100501.57;;;6.96;61.08
55517;BME280;41724;51.176;-0.708;2024-03-08T04:46:57;100501.80;;;6.68;61.80
55517;BME280;41724;51.176;-0.708;2024-03-08T04:49:24;100493.15;;;6.47;62.58
55517;BME280;41724;51.176;-0.708;2024-03-08T04:51:51;100491.91;;;6.79;63.28
55517;BME280;41724;51.176;-0.708;2024-03-08T04:54:18;100492.09;;;6.72;61.97
55517;BME280;41724;51.176;-0.708;2024-03-08T04:56:45;100493.44;;;7.09;61.56
55517;BME280;41724;51.176;-0.708;2024-03-08T04:59:13;100493.22;;;7.42;60.31
55517;BME280;41724;51.176;-0.708;2024-03-08T05:01:40;100492.96;;;7.33;59.78
55517;BME280;41724;51.176;-0.708;2024-03-08T05:04:07;100491.52;;;7.31;60.07
55517;BME280;41724;51.176;-0.708;2024-03-08T05:06:34;100479.77;;;7.36;58.85
55517;BME280;41724;51.176;-0.708;2024-03-08T05:09:02;100477.68;;;7.51;58.82
55517;BME280;41724;51.176;-0.708;2024-03-08T05:11:29;100469.97;;;7.33;59.43
55517;BME280;41724;51.176;-0.708;2024-03-08T05:13:56;100466.85;;;7.26;59.71
55517;BME280;41724;51.176;-0.708;2024-03-08T05:16:23;100460.44;;;7.37;59.34
55517;BME280;41724;51.176;-0.708;2024-03-08T05:18:50;100456.51;;;7.40;59.10
55517;BME280;41724;51.176;-0.708;2024-03-08T05:21:17;100450.92;;;7.32;58.17
55517;BME280;41724;51.176;-0.708;2024-03-08T05:23:44;100452.76;;;7.33;59.38
55517;BME280;41724;51.176;-0.708;2024-03-08T05:26:11;100451.82;;;7.33;59.31
55517;BME280;41724;51.176;-0.708;2024-03-08T05:28:38;100451.26;;;7.28;58.79
55517;BME280;41724;51.176;-0.708;2024-03-08T05:31:05;100451.20;;;7.47;58.67
55517;BME280;41724;51.176;-0.708;2024-03-08T05:33:32;100451.37;;;7.28;58.88
55517;BME280;41724;51.176;-0.708;2024-03-08T05:36:00;100452.71;;;7.48;58.62
55517;BME280;41724;51.176;-0.708;2024-03-08T05:38:26;100450.13;;;7.18;59.53
55517;BME280;41724;51.176;-0.708;2024-03-08T05:40:54;100454.01;;;7.23;59.33
55517;BME280;41724;51.176;-0.708;2024-03-08T05:43:21;100455.11;;;6.90;60.92
55517;BME280;41724;51.176;-0.708;2024-03-08T05:45:48;100454.83;;;7.32;59.95
55517;BME280;41724;51.176;-0.708;2024-03-08T05:48:15;100451.33;;;7.07;59.52
55517;BME280;41724;51.176;-0.708;2024-03-08T05:50:43;100450.55;;;6.94;60.21
55517;BME280;41724;51.176;-0.708;2024-03-08T05:53:11;100444.75;;;7.21;59.26
55517;BME280;41724;51.176;-0.708;2024-03-08T05:55:37;100439.77;;;7.29;60.34
55517;BME280;41724;51.176;-0.708;2024-03-08T05:58:05;100436.99;;;6.88;60.83
55517;BME280;41724;51.176;-0.708;2024-03-08T06:00:32;100434.02;;;7.17;58.95
55517;BME280;41724;51.176;-0.708;2024-03-08T06:02:59;100429.20;;;7.00;59.80
55517;BME280;41724;51.176;-0.708;2024-03-08T06:05:26;100427.70;;;6.86;61.18
55517;BME280;41724;51.176;-0.708;2024-03-08T06:07:54;100422.69;;;6.46;61.74
55517;BME280;41724;51.176;-0.708;2024-03-08T06:10:21;100417.49;;;6.72;61.82
55517;BME280;41724;51.176;-0.708;2024-03-08T06:12:48;100415.15;;;6.79;61.68
55517;BME280;41724;51.176;-0.708;2024-03-08T06:15:15;100416.50;;;6.72;62.53
55517;BME280;41724;51.176;-0.708;2024-03-08T06:17:42;100414.31;;;6.44;61.51
55517;BME280;41724;51.176;-0.708;2024-03-08T06:20:11;100411.93;;;6.40;62.37
55517;BME280;41724;51.176;-0.708;2024-03-08T06:22:38;100407.19;;;6.65;62.12
55517;BME280;41724;51.176;-0.708;2024-03-08T06:25:06;100407.49;;;6.59;61.51
55517;BME280;41724;51.176;-0.708;2024-03-08T06:27:33;100409.06;;;6.68;61.80
55517;BME280;41724;51.176;-0.708;2024-03-08T06:30:00;100412.47;;;6.18;63.91
55517;BME280;41724;51.176;-0.708;2024-03-08T06:32:28;100411.45;;;6.47;63.17
55517;BME280;41724;51.176;-0.708;2024-03-08T06:34:55;100405.41;;;6.61;62.50
55517;BME280;41724;51.176;-0.708;2024-03-08T06:37:22;100414.20;;;6.64;61.91
55517;BME280;41724;51.176;-0.708;2024-03-08T06:39:49;100419.95;;;6.52;62.14
55517;BME280;41724;51.176;-0.708;2024-03-08T06:42:16;100416.55;;;6.76;61.97
55517;BME280;41724;51.176;-0.708;2024-03-08T06:44:43;100417.63;;;6.89;61.12
55517;BME280;41724;51.176;-0.708;2024-03-08T06:47:10;100418.32;;;6.80;61.56
55517;BME280;41724;51.176;-0.708;2024-03-08T06:49:37;100418.69;;;7.00;61.01
55517;BME280;41724;51.176;-0.708;2024-03-08T06:52:05;100415.93;;;7.03;60.59
55517;BME280;41724;51.176;-0.708;2024-03-08T06:54:32;100418.30;;;7.06;59.50
55517;BME280;41724;51.176;-0.708;2024-03-08T06:56:59;100416.15;;;7.40;59.05
55517;BME280;41724;51.176;-0.708;2024-03-08T06:59:26;100413.21;;;7.22;58.81
55517;BME280;41724;51.176;-0.708;2024-03-08T07:01:53;100417.45;;;7.15;59.17
55517;BME280;41724;51.176;-0.708;2024-03-08T07:04:21;100414.66;;;7.43;58.43
55517;BME280;41724;51.176;-0.708;2024-03-08T07:06:48;100415.77;;;7.39;57.86
55517;BME280;41724;51.176;-0.708;2024-03-08T07:09:14;100415.48;;;7.63;57.49
55517;BME280;41724;51.176;-0.708;2024-03-08T07:11:42;100417.13;;;7.55;57.39
55517;BME280;41724;51.176;-0.708;2024-03-08T07:14:09;100418.21;;;7.37;56.91
55517;BME280;41724;51.176;-0.708;2024-03-08T07:16:36;100420.51;;;7.36;57.04
55517;BME280;41724;51.176;-0.708;2024-03-08T07:19:02;100422.49;;;7.52;56.94
55517;BME280;41724;51.176;-0.708;2024-03-08T07:21:30;100419.16;;;7.56;56.66
55517;BME280;41724;51.176;-0.708;2024-03-08T07:23:58;100417.84;;;7.37;57.85
55517;BME280;41724;51.176;-0.708;2024-03-08T07:26:25;100413.33;;;7.79;56.95
55517;BME280;41724;51.176;-0.708;2024-03-08T07:28:52;100412.88;;;7.47;57.14
55517;BME280;41724;51.176;-0.708;2024-03-08T07:31:19;100412.51;;;7.52;57.15
55517;BME280;41724;51.176;-0.708;2024-03-08T07:33:46;100409.49;;;7.56;56.41
55517;BME280;41724;51.176;-0.708;2024-03-08T07:36:13;100408.70;;;7.60;56.89
55517;BME280;41724;51.176;-0.708;2024-03-08T07:38:40;100403.06;;;7.57;56.77
55517;BME280;41724;51.176;-0.708;2024-03-08T07:41:07;100399.70;;;7.90;56.91
55517;BME280;41724;51.176;-0.708;2024-03-08T07:43:34;100396.62;;;7.91;56.59
55517;BME280;41724;51.176;-0.708;2024-03-08T07:46:01;100393.41;;;7.96;57.33
55517;BME280;41724;51.176;-0.708;2024-03-08T07:48:28;100393.33;;;8.08;57.03
55517;BME280;41724;51.176;-0.708;2024-03-08T07:50:55;100396.39;;;8.19;57.36
55517;BME280;41724;51.176;-0.708;2024-03-08T07:53:22;100392.39;;;8.24;57.54
55517;BME280;41724;51.176;-0.708;2024-03-08T07:55:49;100390.13;;;8.12;57.15
55517;BME280;41724;51.176;-0.708;2024-03-08T07:58:17;100393.42;;;7.99;57.09
55517;BME280;41724;51.176;-0.708;2024-03-08T08:00:44;100385.35;;;8.51;58.23
55517;BME280;41724;51.176;-0.708;2024-03-08T08:03:11;100380.67;;;8.03;58.63
55517;BME280;41724;51.176;-0.708;2024-03-08T08:05:38;100376.50;;;7.86;59.60
55517;BME280;41724;51.176;-0.708;2024-03-08T08:08:07;100375.72;;;8.64;60.16
55517;BME280;41724;51.176;-0.708;2024-03-08T08:10:35;100374.36;;;8.72;59.91
55517;BME280;41724;51.176;-0.708;2024-03-08T08:13:02;100373.86;;;8.28;61.56
55517;BME280;41724;51.176;-0.708;2024-03-08T08:15:28;100365.79;;;7.77;62.16
55517;BME280;41724;51.176;-0.708;2024-03-08T08:17:56;100361.62;;;8.56;61.17
55517;BME280;41724;51.176;-0.708;2024-03-08T08:20:23;100355.25;;;8.60;60.84
55517;BME280;41724;51.176;-0.708;2024-03-08T08:22:51;100359.53;;;8.35;61.68
55517;BME280;41724;51.176;-0.708;2024-03-08T08:25:17;100347.84;;;8.50;61.50
55517;BME280;41724;51.176;-0.708;2024-03-08T08:27:45;100340.03;;;8.56;61.67
55517;BME280;41724;51.176;-0.708;2024-03-08T08:30:13;100336.22;;;8.05;62.26
55517;BME280;41724;51.176;-0.708;2024-03-08T08:32:40;100335.26;;;7.75;64.20
55517;BME280;41724;51.176;-0.708;2024-03-08T08:35:08;100332.14;;;6.65;68.38
55517;BME280;41724;51.176;-0.708;2024-03-08T08:37:35;100334.47;;;7.49;66.12
55517;BME280;41724;51.176;-0.708;2024-03-08T08:40:03;100329.72;;;8.27;63.79
55517;BME280;41724;51.176;-0.708;2024-03-08T08:42:30;100323.83;;;8.34;63.81
55517;BME280;41724;51.176;-0.708;2024-03-08T08:44:57;100324.31;;;7.87;64.98
55517;BME280;41724;51.176;-0.708;2024-03-08T08:47:25;100324.60;;;7.94;65.65
55517;BME280;41724;51.176;-0.708;2024-03-08T08:49:51;100320.31;;;7.59;65.44
55517;BME280;41724;51.176;-0.708;2024-03-08T08:52:19;100310.44;;;7.32;67.38
55517;BME280;41724;51.176;-0.708;2024-03-08T08:54:46;100305.42;;;7.17;66.43
55517;BME280;41724;51.176;-0.708;2024-03-08T08:57:13;100304.38;;;7.62;65.48
55517;BME280;41724;51.176;-0.708;2024-03-08T08:59:40;100299.83;;;7.66;66.06
55517;BME280;41724;51.176;-0.708;2024-03-08T09:02:07;100294.54;;;7.06;69.25
55517;BME280;41724;51.176;-0.708;2024-03-08T09:04:33;100291.56;;;7.73;66.89
55517;BME280;41724;51.176;-0.708;2024-03-08T09:07:01;100286.89;;;8.37;64.99
55517;BME280;41724;51.176;-0.708;2024-03-08T09:09:28;100284.18;;;7.73;64.37
55517;BME280;41724;51.176;-0.708;2024-03-08T09:11:55;100279.75;;;7.26;68.48
55517;BME280;41724;51.176;-0.708;2024-03-08T09:14:22;100276.36;;;7.40;68.33
55517;BME280;41724;51.176;-0.708;2024-03-08T09:16:49;100271.91;;;6.91;69.92
55517;BME280;41724;51.176;-0.708;2024-03-08T09:19:16;100265.58;;;6.83;69.80
55517;BME280;41724;51.176;-0.708;2024-03-08T09:21:43;100264.73;;;7.72;68.25
55517;BME280;41724;51.176;-0.708;2024-03-08T09:24:10;100256.34;;;6.90;69.35
55517;BME280;41724;51.176;-0.708;2024-03-08T09:26:37;100253.23;;;7.34;67.44
55517;BME280;41724;51.176;-0.708;2024-03-08T09:29:04;100248.08;;;7.40;69.17
55517;BME280;41724;51.176;-0.708;2024-03-08T09:31:31;100240.52;;;7.46;68.85
55517;BME280;41724;51.176;-0.708;2024-03-08T09:33:59;100230.81;;;8.07;67.72
55517;BME280;41724;51.176;-0.708;2024-03-08T09:36:26;100223.01;;;8.17;64.95
55517;BME280;41724;51.176;-0.708;2024-03-08T09:38:53;100222.55;;;7.85;65.91
55517;BME280;41724;51.176;-0.708;2024-03-08T09:41:20;100214.37;;;7.89;65.43
55517;BME280;41724;51.176;-0.708;2024-03-08T09:43:47;100212.23;;;7.75;66.24
55517;BME280;41724;51.176;-0.708;2024-03-08T09:46:15;100206.06;;;7.34;66.89
55517;BME280;41724;51.176;-0.708;2024-03-08T09:48:42;100200.60;;;7.91;67.68
55517;BME280;41724;51.176;-0.708;2024-03-08T09:51:09;100195.55;;;7.55;66.83
55517;BME280;41724;51.176;-0.708;2024-03-08T09:53:36;100194.41;;;7.39;68.35
55517;BME280;41724;51.176;-0.708;2024-03-08T09:56:04;100190.33;;;6.80;71.58
55517;BME280;41724;51.176;-0.708;2024-03-08T09:58:32;100186.77;;;7.55;67.58
55517;BME280;41724;51.176;-0.708;2024-03-08T10:00:59;100182.30;;;8.25;66.07
55517;BME280;41724;51.176;-0.708;2024-03-08T10:03:26;100181.91;;;7.61;67.71
55517;BME280;41724;51.176;-0.708;2024-03-08T10:05:53;100178.99;;;8.27;64.37
55517;BME280;41724;51.176;-0.708;2024-03-08T10:08:19;100175.03;;;8.86;63.69
55517;BME280;41724;51.176;-0.708;2024-03-08T10:10:46;100175.20;;;7.99;63.60
55517;BME280;41724;51.176;-0.708;2024-03-08T10:13:13;100169.10;;;8.45;64.76
55517;BME280;41724;51.176;-0.708;2024-03-08T10:15:40;100164.23;;;8.82;62.43
55517;BME280;41724;51.176;-0.708;2024-03-08T10:18:07;100161.78;;;8.96;63.15
55517;BME280;41724;51.176;-0.708;2024-03-08T10:20:34;100152.47;;;8.20;65.20
55517;BME280;41724;51.176;-0.708;2024-03-08T10:23:02;100152.77;;;7.76;65.37
55517;BME280;41724;51.176;-0.708;2024-03-08T10:25:29;100146.20;;;8.16;64.27
55517;BME280;41724;51.176;-0.708;2024-03-08T10:27:57;100144.52;;;8.37;63.45
55517;BME280;41724;51.176;-0.708;2024-03-08T10:30:24;100145.08;;;7.73;64.32
55517;BME280;41724;51.176;-0.708;2024-03-08T10:32:51;100134.68;;;8.45;62.01
55517;BME280;41724;51.176;-0.708;2024-03-08T10:35:18;100136.92;;;8.43;61.93
55517;BME280;41724;51.176;-0.708;2024-03-08T10:37:47;100137.34;;;8.84;60.71
55517;BME280;41724;51.176;-0.708;2024-03-08T10:40:17;100128.35;;;8.64;61.85
55517;BME280;41724;51.176;-0.708;2024-03-08T10:42:52;100127.56;;;8.36;59.45
55517;BME280;41724;51.176;-0.708;2024-03-08T10:45:29;100127.33;;;9.01;60.53
55517;BME280;41724;51.176;-0.708;2024-03-08T10:48:19;100120.62;;;9.44;59.02
55517;BME280;41724;51.176;-0.708;2024-03-08T10:50:52;100116.27;;;9.38;56.28
55517;BME280;41724;51.176;-0.708;2024-03-08T10:53:22;100109.85;;;9.55;56.22
55517;BME280;41724;51.176;-0.708;2024-03-08T10:55:49;100104.51;;;9.34;56.74
55517;BME280;41724;51.176;-0.708;2024-03-08T10:58:17;100095.82;;;9.94;55.72
55517;BME280;41724;51.176;-0.708;2024-03-08T11:00:44;100085.97;;;9.23;55.38
55517;BME280;41724;51.176;-0.708;2024-03-08T11:03:43;100080.65;;;10.31;55.24
55517;BME280;41724;51.176;-0.708;2024-03-08T11:06:15;100083.04;;;9.69;56.22
55517;BME280;41724;51.176;-0.708;2024-03-08T11:08:43;100088.15;;;9.16;56.24
55517;BME280;41724;51.176;-0.708;2024-03-08T11:11:24;100081.69;;;8.89;53.67
55517;BME280;41724;51.176;-0.708;2024-03-08T11:13:51;100081.33;;;8.82;54.49
55517;BME280;41724;51.176;-0.708;2024-03-08T11:16:38;100077.31;;;8.65;55.96
55517;BME280;41724;51.176;-0.708;2024-03-08T11:19:23;100068.90;;;9.08;54.94
55517;BME280;41724;51.176;-0.708;2024-03-08T11:21:58;100066.30;;;9.42;53.03
55517;BME280;41724;51.176;-0.708;2024-03-08T11:24:25;100058.69;;;8.88;55.14
55517;BME280;41724;51.176;-0.708;2024-03-08T11:26:57;100065.06;;;9.89;53.62
55517;BME280;41724;51.176;-0.708;2024-03-08T11:29:40;100067.41;;;10.50;52.29
55517;BME280;41724;51.176;-0.708;2024-03-08T11:32:08;100061.22;;;10.86;51.72
55517;BME280;41724;51.176;-0.708;2024-03-08T11:34:36;100055.68;;;10.62;49.54
55517;BME280;41724;51.176;-0.708;2024-03-08T11:37:05;100051.12;;;10.50;50.86
55517;BME280;41724;51.176;-0.708;2024-03-08T11:39:32;100044.10;;;10.73;48.24
55517;BME280;41724;51.176;-0.708;2024-03-08T11:41:59;100044.21;;;10.56;49.70
55517;BME280;41724;51.176;-0.708;2024-03-08T11:44:27;100036.55;;;10.66;49.95
55517;BME280;41724;51.176;-0.708;2024-03-08T11:46:54;100035.01;;;10.80;49.41
55517;BME280;41724;51.176;-0.708;2024-03-08T11:49:21;100036.73;;;11.54;47.37
55517;BME280;41724;51.176;-0.708;2024-03-08T11:51:51;100028.63;;;11.61;47.87
55517;BME280;41724;51.176;-0.708;2024-03-08T11:54:19;100023.23;;;11.26;45.98
55517;BME280;41724;51.176;-0.708;2024-03-08T11:56:46;100028.60;;;11.21;48.81
55517;BME280;41724;51.176;-0.708;2024-03-08T11:59:13;100023.92;;;12.25;47.31
55517;BME280;41724;51.176;-0.708;2024-03-08T12:01:40;100022.83;;;12.92;45.64
55517;BME280;41724;51.176;-0.708;2024-03-08T12:04:12;100024.43;;;11.76;44.78
55517;BME280;41724;51.176;-0.708;2024-03-08T12:06:40;100020.21;;;11.22;45.70
55517;BME280;41724;51.176;-0.708;2024-03-08T12:09:09;100013.85;;;12.84;43.14
55517;BME280;41724;51.176;-0.708;2024-03-08T12:11:36;100005.50;;;13.47;42.66
55517;BME280;41724;51.176;-0.708;2024-03-08T12:14:03;100004.32;;;12.60;44.15
55517;BME280;41724;51.176;-0.708;2024-03-08T12:16:31;100008.17;;;12.77;44.97
55517;BME280;41724;51.176;-0.708;2024-03-08T12:18:59;99996.29;;;13.60;42.72
55517;BME280;41724;51.176;-0.708;2024-03-08T12:21:26;99984.77;;;14.11;41.83
55517;BME280;41724;51.176;-0.708;2024-03-08T12:24:03;99985.34;;;13.67;41.67
55517;BME280;41724;51.176;-0.708;2024-03-08T12:26:30;99982.28;;;13.16;41.20
55517;BME280;41724;51.176;-0.708;2024-03-08T12:29:14;99982.92;;;13.03;42.37
55517;BME280;41724;51.176;-0.708;2024-03-08T12:31:42;99982.65;;;12.86;43.43
55517;BME280;41724;51.176;-0.708;2024-03-08T12:34:10;99981.72;;;12.86;42.75
55517;BME280;41724;51.176;-0.708;2024-03-08T12:36:37;99975.00;;;12.71;42.68
55517;BME280;41724;51.176;-0.708;2024-03-08T12:39:06;99964.47;;;13.14;42.24
55517;BME280;41724;51.176;-0.708;2024-03-08T12:41:39;99962.79;;;13.49;41.49
55517;BME280;41724;51.176;-0.708;2024-03-08T12:44:06;99959.99;;;13.83;40.24
55517;BME280;41724;51.176;-0.708;2024-03-08T12:46:34;99956.24;;;13.51;42.08
55517;BME280;41724;51.176;-0.708;2024-03-08T12:49:00;99949.92;;;13.74;40.74
55517;BME280;41724;51.176;-0.708;2024-03-08T12:51:27;99950.77;;;14.76;39.64
55517;BME280;41724;51.176;-0.708;2024-03-08T12:53:54;99946.03;;;14.60;39.54